createdAt,value
2017-08-20T00:00:07.090Z,22.51
2017-08-20T00:01:07.070Z,22.49
2017-08-20T00:02:07.046Z,22.61
2017-08-20T00:03:07.025Z,22.60
2017-08-20T00:04:07.004Z,22.60
2017-08-20T00:05:06.982Z,22.57
2017-08-20T00:06:06.960Z,22.68
2017-08-20T00:07:06.942Z,22.61
2017-08-20T00:08:06.917Z,22.65
2017-08-20T00:09:06.897Z,22.57
2017-08-20T00:10:06.876Z,22.61
2017-08-20T00:11:06.854Z,22.64
2017-08-20T00:12:06.834Z,22.62
2017-08-20T00:13:06.810Z,22.60
2017-08-20T00:14:06.790Z,22.60
2017-08-20T00:15:06.769Z,22.64
2017-08-20T00:16:06.757Z,22.65
2017-08-20T00:17:06.724Z,22.67
2017-08-20T00:18:06.705Z,22.72
2017-08-20T00:19:06.683Z,22.65
2017-08-20T00:20:06.661Z,22.70
2017-08-20T00:21:06.648Z,22.65
2017-08-20T00:22:06.619Z,22.67
2017-08-20T00:23:06.596Z,22.65
2017-08-20T00:24:06.574Z,22.67
2017-08-20T00:25:06.554Z,22.67
2017-08-20T00:26:06.532Z,22.68
2017-08-20T00:27:06.511Z,22.60
2017-08-20T00:28:06.490Z,22.68
2017-08-20T00:29:06.467Z,22.67
2017-08-20T00:30:06.448Z,22.64
2017-08-20T00:31:06.426Z,22.67
2017-08-20T00:32:06.404Z,22.68
2017-08-20T00:33:06.384Z,22.67
2017-08-20T00:34:06.361Z,22.68
2017-08-20T00:35:06.339Z,22.72
2017-08-20T00:36:06.319Z,22.72
2017-08-20T00:37:06.297Z,22.70
2017-08-20T00:38:06.277Z,22.65
2017-08-20T00:39:06.254Z,22.70
2017-08-20T00:40:06.233Z,22.68
2017-08-20T00:41:06.211Z,22.72
2017-08-20T00:42:06.190Z,22.70
2017-08-20T00:43:06.169Z,22.64
2017-08-20T00:44:06.145Z,22.75
2017-08-20T00:45:06.126Z,22.72
2017-08-20T00:46:06.103Z,22.65
2017-08-20T00:47:06.082Z,22.73
2017-08-20T00:48:06.060Z,22.76
2017-08-20T00:49:06.039Z,22.73
2017-08-20T00:50:06.020Z,22.72
2017-08-20T00:51:05.998Z,22.79
2017-08-20T00:52:05.976Z,22.67
2017-08-20T00:53:05.953Z,22.73
2017-08-20T00:54:05.934Z,22.67
2017-08-20T00:55:05.912Z,22.75
2017-08-20T00:56:05.889Z,22.67
2017-08-20T00:57:05.869Z,22.77
2017-08-20T00:58:05.847Z,22.70
2017-08-20T00:59:05.826Z,22.70
2017-08-20T01:00:05.804Z,22.72
2017-08-20T01:01:05.782Z,22.79
2017-08-20T01:02:05.761Z,22.76
2017-08-20T01:03:05.740Z,22.75
2017-08-20T01:04:05.717Z,22.79
2017-08-20T01:05:05.696Z,22.76
2017-08-20T01:06:05.676Z,22.72
2017-08-20T01:07:05.655Z,22.80
2017-08-20T01:08:05.634Z,22.75
2017-08-20T01:09:05.611Z,22.83
2017-08-20T01:10:05.592Z,22.80
2017-08-20T01:11:05.569Z,22.80
2017-08-20T01:12:05.548Z,22.73
2017-08-20T01:13:05.526Z,22.79
2017-08-20T01:14:05.505Z,22.83
2017-08-20T01:15:05.484Z,22.82
2017-08-20T01:16:05.463Z,22.88
2017-08-20T01:17:05.444Z,22.79
2017-08-20T01:18:05.421Z,22.77
2017-08-20T01:19:05.399Z,22.76
2017-08-20T01:20:05.377Z,22.86
2017-08-20T01:21:05.359Z,22.85
2017-08-20T01:22:05.335Z,22.86
2017-08-20T01:23:05.313Z,22.86
2017-08-20T01:24:05.291Z,22.75
2017-08-20T01:25:05.270Z,22.76
2017-08-20T01:26:05.249Z,22.80
2017-08-20T01:27:05.229Z,22.85
2017-08-20T01:28:05.206Z,22.82
2017-08-20T01:29:05.185Z,22.86
2017-08-20T01:30:05.163Z,22.77
2017-08-20T01:31:05.141Z,22.82
2017-08-20T01:32:05.120Z,22.82
2017-08-20T01:33:05.101Z,22.82
2017-08-20T01:34:05.079Z,22.82
2017-08-20T01:35:05.058Z,22.80
2017-08-20T01:36:05.034Z,22.80
2017-08-20T01:37:05.015Z,22.83
2017-08-20T01:38:04.992Z,22.83
2017-08-20T01:39:04.972Z,22.80
2017-08-20T01:40:04.949Z,22.80
2017-08-20T01:41:04.928Z,22.88
2017-08-20T01:42:04.908Z,22.88
2017-08-20T01:43:04.887Z,22.90
2017-08-20T01:44:04.865Z,22.83
2017-08-20T01:45:04.842Z,22.83
2017-08-20T01:46:04.821Z,22.80
2017-08-20T01:47:04.802Z,22.82
2017-08-20T01:48:04.780Z,22.82
2017-08-20T01:49:04.755Z,22.82
2017-08-20T01:50:04.737Z,22.90
2017-08-20T01:51:04.715Z,22.85
2017-08-20T01:52:04.693Z,22.83
2017-08-20T01:53:04.670Z,22.85
2017-08-20T01:54:04.649Z,22.82
2017-08-20T01:55:04.627Z,22.85
2017-08-20T01:56:04.610Z,22.86
2017-08-20T01:57:04.585Z,22.82
2017-08-20T01:58:04.565Z,22.83
2017-08-20T01:59:04.543Z,22.83
2017-08-20T02:00:04.521Z,22.83
2017-08-20T02:01:04.501Z,22.82
2017-08-20T02:02:04.483Z,22.90
2017-08-20T02:03:04.457Z,22.86
2017-08-20T02:04:04.436Z,22.83
2017-08-20T02:05:04.412Z,22.88
2017-08-20T02:06:04.391Z,22.86
2017-08-20T02:07:04.370Z,22.88
2017-08-20T02:08:04.349Z,22.90
2017-08-20T02:09:04.328Z,22.82
2017-08-20T02:10:04.306Z,22.90
2017-08-20T02:11:04.287Z,22.83
2017-08-20T02:12:04.263Z,22.86
2017-08-20T02:13:04.241Z,22.91
2017-08-20T02:14:04.222Z,22.86
2017-08-20T02:15:04.201Z,22.90
2017-08-20T02:16:04.179Z,22.92
2017-08-20T02:17:04.157Z,22.92
2017-08-20T02:18:04.136Z,22.86
2017-08-20T02:19:04.114Z,22.82
2017-08-20T02:20:04.093Z,22.85
2017-08-20T02:21:04.077Z,22.90
2017-08-20T02:22:04.052Z,22.90
2017-08-20T02:23:04.030Z,22.91
2017-08-20T02:24:04.007Z,22.90
2017-08-20T02:25:03.985Z,22.83
2017-08-20T02:26:03.964Z,22.86
2017-08-20T02:27:03.944Z,22.94
2017-08-20T02:28:03.922Z,22.86
2017-08-20T02:29:03.904Z,22.88
2017-08-20T02:30:03.879Z,22.86
2017-08-20T02:31:03.859Z,22.83
2017-08-20T02:32:03.834Z,22.88
2017-08-20T02:33:03.815Z,22.88
2017-08-20T02:34:03.794Z,22.97
2017-08-20T02:35:03.772Z,22.86
2017-08-20T02:36:03.751Z,22.85
2017-08-20T02:37:03.729Z,22.90
2017-08-20T02:38:03.709Z,22.86
2017-08-20T02:39:03.687Z,22.83
2017-08-20T02:40:03.664Z,22.82
2017-08-20T02:41:03.643Z,22.94
2017-08-20T02:42:03.622Z,22.94
2017-08-20T02:43:03.599Z,22.98
2017-08-20T02:44:03.580Z,22.97
2017-08-20T02:45:03.558Z,22.90
2017-08-20T02:46:03.537Z,22.94
2017-08-20T02:47:03.515Z,22.97
2017-08-20T02:48:03.494Z,22.94
2017-08-20T02:49:03.473Z,22.91
2017-08-20T02:50:03.452Z,22.94
2017-08-20T02:51:03.431Z,22.95
2017-08-20T02:52:03.408Z,22.92
2017-08-20T02:53:03.388Z,22.94
2017-08-20T02:54:03.366Z,22.94
2017-08-20T02:55:03.345Z,22.94
2017-08-20T02:56:03.324Z,22.97
2017-08-20T02:57:03.304Z,22.94
2017-08-20T02:58:03.283Z,22.92
2017-08-20T02:59:03.260Z,22.95
2017-08-20T03:00:03.238Z,22.92
2017-08-20T03:01:03.216Z,22.92
2017-08-20T03:02:03.195Z,22.97
2017-08-20T03:03:03.174Z,22.97
2017-08-20T03:04:03.151Z,22.97
2017-08-20T03:05:03.132Z,22.91
2017-08-20T03:06:03.110Z,22.92
2017-08-20T03:07:03.089Z,22.94
2017-08-20T03:08:03.065Z,22.86
2017-08-20T03:09:03.046Z,22.97
2017-08-20T03:10:03.024Z,22.92
2017-08-20T03:11:03.005Z,22.94
2017-08-20T03:12:02.981Z,22.92
2017-08-20T03:13:02.962Z,22.97
2017-08-20T03:14:02.939Z,23.00
2017-08-20T03:15:02.918Z,22.94
2017-08-20T03:16:02.895Z,22.92
2017-08-20T03:17:02.877Z,22.98
2017-08-20T03:18:02.856Z,22.95
2017-08-20T03:19:02.835Z,22.94
2017-08-20T03:20:02.813Z,22.94
2017-08-20T03:21:02.790Z,22.92
2017-08-20T03:22:02.771Z,22.86
2017-08-20T03:23:02.747Z,22.88
2017-08-20T03:24:02.727Z,22.85
2017-08-20T03:25:02.705Z,22.90
2017-08-20T03:26:02.691Z,22.88
2017-08-20T03:27:02.663Z,22.86
2017-08-20T03:28:02.639Z,22.85
2017-08-20T03:29:02.619Z,22.92
2017-08-20T03:30:02.598Z,22.88
2017-08-20T03:31:02.582Z,22.92
2017-08-20T03:32:02.554Z,22.94
2017-08-20T03:33:02.533Z,22.95
2017-08-20T03:34:02.513Z,22.90
2017-08-20T03:35:02.492Z,22.95
2017-08-20T03:36:02.469Z,22.92
2017-08-20T03:37:02.448Z,22.92
2017-08-20T03:38:02.428Z,22.97
2017-08-20T03:39:02.406Z,22.92
2017-08-20T03:40:02.383Z,22.90
2017-08-20T03:41:02.363Z,23.00
2017-08-20T03:42:02.341Z,22.98
2017-08-20T03:43:02.320Z,22.95
2017-08-20T03:44:02.298Z,22.98
2017-08-20T03:45:02.277Z,22.95
2017-08-20T03:46:02.256Z,22.92
2017-08-20T03:47:02.233Z,22.88
2017-08-20T03:48:02.214Z,22.91
2017-08-20T03:49:02.193Z,22.91
2017-08-20T03:50:02.170Z,22.88
2017-08-20T03:51:02.148Z,22.86
2017-08-20T03:52:02.129Z,22.94
2017-08-20T03:53:02.105Z,22.95
2017-08-20T03:54:02.085Z,22.85
2017-08-20T03:55:02.064Z,22.91
2017-08-20T03:56:02.041Z,22.95
2017-08-20T03:57:02.021Z,22.94
2017-08-20T03:58:01.999Z,22.91
2017-08-20T03:59:01.978Z,22.91
2017-08-20T04:00:01.956Z,22.88
2017-08-20T04:01:01.936Z,22.95
2017-08-20T04:02:01.914Z,22.86
2017-08-20T04:03:01.894Z,22.86
2017-08-20T04:04:01.870Z,22.98
2017-08-20T04:05:01.849Z,22.91
2017-08-20T04:06:01.830Z,22.91
2017-08-20T04:07:01.806Z,22.90
2017-08-20T04:08:01.784Z,22.85
2017-08-20T04:09:01.763Z,22.92
2017-08-20T04:10:01.743Z,22.86
2017-08-20T04:11:01.723Z,22.86
2017-08-20T04:12:01.701Z,22.88
2017-08-20T04:13:01.677Z,22.97
2017-08-20T04:14:01.656Z,22.88
2017-08-20T04:15:01.636Z,22.91
2017-08-20T04:16:01.614Z,22.85
2017-08-20T04:17:01.590Z,22.88
2017-08-20T04:18:01.571Z,22.85
2017-08-20T04:19:01.563Z,22.90
2017-08-20T04:20:01.527Z,22.90
2017-08-20T04:21:01.507Z,22.90
2017-08-20T04:22:01.486Z,22.88
2017-08-20T04:23:01.466Z,22.88
2017-08-20T04:24:01.441Z,22.85
2017-08-20T04:25:01.420Z,22.90
2017-08-20T04:26:01.400Z,22.92
2017-08-20T04:27:01.377Z,22.86
2017-08-20T04:28:01.356Z,22.88
2017-08-20T04:29:01.335Z,22.85
2017-08-20T04:30:01.314Z,22.88
2017-08-20T04:31:01.292Z,22.85
2017-08-20T04:32:01.270Z,22.85
2017-08-20T04:33:01.248Z,22.86
2017-08-20T04:34:01.227Z,22.86
2017-08-20T04:35:01.206Z,22.85
2017-08-20T04:36:01.183Z,22.86
2017-08-20T04:37:01.163Z,22.88
2017-08-20T04:38:01.143Z,22.85
2017-08-20T04:39:01.121Z,22.92
2017-08-20T04:40:01.100Z,22.88
2017-08-20T04:41:01.079Z,22.94
2017-08-20T04:42:01.056Z,22.94
2017-08-20T04:43:01.034Z,22.90
2017-08-20T04:44:01.017Z,22.88
2017-08-20T04:45:00.990Z,22.91
2017-08-20T04:46:00.972Z,22.90
2017-08-20T04:47:00.948Z,22.97
2017-08-20T04:48:00.930Z,22.90
2017-08-20T04:49:00.906Z,22.92
2017-08-20T04:50:00.887Z,22.85
2017-08-20T04:51:00.867Z,22.90
2017-08-20T04:52:00.843Z,22.88
2017-08-20T04:53:00.821Z,22.92
2017-08-20T04:54:00.801Z,22.83
2017-08-20T04:55:00.777Z,22.90
2017-08-20T04:56:00.757Z,22.83
2017-08-20T04:57:00.733Z,22.88
2017-08-20T04:58:00.714Z,22.83
2017-08-20T04:59:00.692Z,22.83
2017-08-20T05:00:00.671Z,22.88
2017-08-20T05:01:00.648Z,22.86
2017-08-20T05:02:00.628Z,22.83
2017-08-20T05:03:00.608Z,22.88
2017-08-20T05:04:00.585Z,22.88
2017-08-20T05:05:00.562Z,22.85
2017-08-20T05:06:00.541Z,22.83
2017-08-20T05:07:00.522Z,22.86
2017-08-20T05:08:00.499Z,22.82
2017-08-20T05:09:00.478Z,22.86
2017-08-20T05:10:00.456Z,22.85
2017-08-20T05:11:00.434Z,22.85
2017-08-20T05:12:00.414Z,22.88
2017-08-20T05:13:00.392Z,22.95
2017-08-20T05:14:00.370Z,22.88
2017-08-20T05:15:00.348Z,22.88
2017-08-20T05:16:00.327Z,22.88
2017-08-20T05:17:00.305Z,22.97
2017-08-20T05:18:00.286Z,22.85
2017-08-20T05:19:00.263Z,22.88
2017-08-20T05:20:00.241Z,22.88
2017-08-20T05:21:00.222Z,22.94
2017-08-20T05:22:00.199Z,22.86
2017-08-20T05:23:00.177Z,22.90
2017-08-20T05:24:00.156Z,22.90
2017-08-20T05:25:00.134Z,22.88
2017-08-20T05:26:00.116Z,22.94
2017-08-20T05:27:00.093Z,22.91
2017-08-20T05:28:00.072Z,22.94
2017-08-20T05:29:00.050Z,22.92
2017-08-20T05:30:00.029Z,22.98
2017-08-20T05:31:00.006Z,22.85
2017-08-20T05:31:59.984Z,22.85
2017-08-20T05:32:59.962Z,22.85
2017-08-20T05:33:59.941Z,22.88
2017-08-20T05:34:59.920Z,22.85
2017-08-20T05:35:59.898Z,22.88
2017-08-20T05:36:59.877Z,22.86
2017-08-20T05:37:59.857Z,22.86
2017-08-20T05:38:59.836Z,22.85
2017-08-20T05:39:59.813Z,22.92
2017-08-20T05:40:59.793Z,22.91
2017-08-20T05:41:59.770Z,22.94
2017-08-20T05:42:59.750Z,22.94
2017-08-20T05:43:59.728Z,22.95
2017-08-20T05:44:59.707Z,22.97
2017-08-20T05:45:59.685Z,22.94
2017-08-20T05:46:59.667Z,22.92
2017-08-20T05:47:59.642Z,23.02
2017-08-20T05:48:59.623Z,22.94
2017-08-20T05:49:59.603Z,22.97
2017-08-20T05:50:59.579Z,22.98
2017-08-20T05:51:59.558Z,22.97
2017-08-20T05:52:59.764Z,23.04
2017-08-20T05:53:59.515Z,23.01
2017-08-20T05:54:59.494Z,22.98
2017-08-20T05:55:59.471Z,23.07
2017-08-20T05:56:59.452Z,23.04
2017-08-20T05:57:59.672Z,23.05
2017-08-20T05:58:59.412Z,23.07
2017-08-20T05:59:59.387Z,22.98
2017-08-20T06:00:59.366Z,22.98
2017-08-20T06:01:59.348Z,23.10
2017-08-20T06:02:59.324Z,23.09
2017-08-20T06:03:59.305Z,22.97
2017-08-20T06:04:59.282Z,23.09
2017-08-20T06:05:59.265Z,23.02
2017-08-20T06:06:59.242Z,22.97
2017-08-20T06:07:59.220Z,23.09
2017-08-20T06:08:59.197Z,23.00
2017-08-20T06:09:59.179Z,22.98
2017-08-20T06:10:59.156Z,22.97
2017-08-20T06:11:59.133Z,23.00
2017-08-20T06:12:59.113Z,22.95
2017-08-20T06:13:59.093Z,23.01
2017-08-20T06:14:59.071Z,22.97
2017-08-20T06:15:59.052Z,23.02
2017-08-20T06:16:59.029Z,22.98
2017-08-20T06:17:59.008Z,22.97
2017-08-20T06:18:58.986Z,22.95
2017-08-20T06:19:58.964Z,22.92
2017-08-20T06:20:58.944Z,23.00
2017-08-20T06:21:58.922Z,23.05
2017-08-20T06:22:58.903Z,22.98
2017-08-20T06:23:58.879Z,23.04
2017-08-20T06:24:58.858Z,23.00
2017-08-20T06:25:58.837Z,22.91
2017-08-20T06:26:58.816Z,22.98
2017-08-20T06:27:58.796Z,23.04
2017-08-20T06:28:58.774Z,22.95
2017-08-20T06:29:58.754Z,22.95
2017-08-20T06:30:58.734Z,23.05
2017-08-20T06:31:58.713Z,22.94
2017-08-20T06:32:58.691Z,22.98
2017-08-20T06:33:58.669Z,23.01
2017-08-20T06:34:58.648Z,22.97
2017-08-20T06:35:58.626Z,23.15
2017-08-20T06:36:58.605Z,23.07
2017-08-20T06:37:58.583Z,23.10
2017-08-20T06:38:58.564Z,23.04
2017-08-20T06:39:58.542Z,23.07
2017-08-20T06:40:58.521Z,23.01
2017-08-20T06:41:58.501Z,23.10
2017-08-20T06:42:58.476Z,23.05
2017-08-20T06:43:58.457Z,23.16
2017-08-20T06:44:58.435Z,23.19
2017-08-20T06:45:58.420Z,23.16
2017-08-20T06:46:58.395Z,23.12
2017-08-20T06:47:58.374Z,23.09
2017-08-20T06:48:58.350Z,23.13
2017-08-20T06:49:58.330Z,23.02
2017-08-20T06:50:58.315Z,23.02
2017-08-20T06:51:58.287Z,22.97
2017-08-20T06:52:58.268Z,23.04
2017-08-20T06:53:58.246Z,23.07
2017-08-20T06:54:58.224Z,23.05
2017-08-20T06:55:58.204Z,23.02
2017-08-20T06:56:58.181Z,23.02
2017-08-20T06:57:58.159Z,23.16
2017-08-20T06:58:58.139Z,23.16
2017-08-20T06:59:58.116Z,23.12
2017-08-20T07:00:58.098Z,23.17
2017-08-20T07:01:58.326Z,23.15
2017-08-20T07:02:58.056Z,23.07
2017-08-20T07:03:58.030Z,23.17
2017-08-20T07:04:58.012Z,23.20
2017-08-20T07:05:57.989Z,23.12
2017-08-20T07:06:57.970Z,23.13
2017-08-20T07:07:57.947Z,23.25
2017-08-20T07:08:57.927Z,23.32
2017-08-20T07:09:57.908Z,23.35
2017-08-20T07:10:57.884Z,23.28
2017-08-20T07:11:57.863Z,23.33
2017-08-20T07:12:57.844Z,23.23
2017-08-20T07:13:57.821Z,23.36
2017-08-20T07:14:57.800Z,23.38
2017-08-20T07:15:57.776Z,23.35
2017-08-20T07:16:57.757Z,23.39
2017-08-20T07:17:57.738Z,23.40
2017-08-20T07:18:57.717Z,23.40
2017-08-20T07:19:57.694Z,23.33
2017-08-20T07:20:57.672Z,23.35
2017-08-20T07:21:57.652Z,23.38
2017-08-20T07:22:57.638Z,23.35
2017-08-20T07:23:57.610Z,23.46
2017-08-20T07:24:57.591Z,23.38
2017-08-20T07:25:57.568Z,23.42
2017-08-20T07:26:57.546Z,23.43
2017-08-20T07:27:57.526Z,23.47
2017-08-20T07:28:57.503Z,23.46
2017-08-20T07:29:57.488Z,23.47
2017-08-20T07:30:57.463Z,23.42
2017-08-20T07:31:57.441Z,23.47
2017-08-20T07:32:57.420Z,23.50
2017-08-20T07:33:57.420Z,23.46
2017-08-20T07:34:57.379Z,23.50
2017-08-20T07:35:57.358Z,23.50
2017-08-20T07:36:57.337Z,23.53
2017-08-20T07:37:57.316Z,23.51
2017-08-20T07:38:57.295Z,23.48
2017-08-20T07:39:57.274Z,23.51
2017-08-20T07:40:57.254Z,23.53
2017-08-20T07:41:57.234Z,23.54
2017-08-20T07:42:57.214Z,23.61
2017-08-20T07:43:57.195Z,23.55
2017-08-20T07:44:57.169Z,23.57
2017-08-20T07:45:57.151Z,23.57
2017-08-20T07:46:57.129Z,23.50
2017-08-20T07:47:57.106Z,23.54
2017-08-20T07:48:57.087Z,23.55
2017-08-20T07:49:57.065Z,23.54
2017-08-20T07:50:57.045Z,23.55
2017-08-20T07:51:57.024Z,23.54
2017-08-20T07:52:57.003Z,23.54
2017-08-20T07:53:56.987Z,23.61
2017-08-20T07:54:56.959Z,23.53
2017-08-20T07:55:56.941Z,23.61
2017-08-20T07:56:56.917Z,23.60
2017-08-20T07:57:56.899Z,23.60
2017-08-20T07:58:56.876Z,23.60
2017-08-20T07:59:56.857Z,23.57
2017-08-20T08:00:56.833Z,23.63
2017-08-20T08:01:56.815Z,23.66
2017-08-20T08:02:56.793Z,23.58
2017-08-20T08:03:56.773Z,23.68
2017-08-20T08:04:56.751Z,23.58
2017-08-20T08:05:56.729Z,23.57
2017-08-20T08:06:56.711Z,23.60
2017-08-20T08:07:56.691Z,23.65
2017-08-20T08:08:56.674Z,23.61
2017-08-20T08:09:56.650Z,23.72
2017-08-20T08:10:56.625Z,23.60
2017-08-20T08:11:56.607Z,23.61
2017-08-20T08:12:56.584Z,23.63
2017-08-20T08:13:56.565Z,23.58
2017-08-20T08:14:56.542Z,23.58
2017-08-20T08:15:56.520Z,23.61
2017-08-20T08:16:56.500Z,23.63
2017-08-20T08:17:56.478Z,23.69
2017-08-20T08:18:56.481Z,23.65
2017-08-20T08:19:56.439Z,23.58
2017-08-20T08:20:56.418Z,23.75
2017-08-20T08:21:56.397Z,23.68
2017-08-20T08:22:56.375Z,23.65
2017-08-20T08:23:56.354Z,23.60
2017-08-20T08:24:56.333Z,23.60
2017-08-20T08:25:56.313Z,23.58
2017-08-20T08:26:56.293Z,23.57
2017-08-20T08:27:56.272Z,23.61
2017-08-20T08:28:56.251Z,23.68
2017-08-20T08:29:56.229Z,23.68
2017-08-20T08:30:56.209Z,23.68
2017-08-20T08:31:56.187Z,23.72
2017-08-20T08:32:56.172Z,23.73
2017-08-20T08:33:56.145Z,23.68
2017-08-20T08:34:56.124Z,23.73
2017-08-20T08:35:56.106Z,23.70
2017-08-20T08:36:56.085Z,23.69
2017-08-20T08:37:56.063Z,23.76
2017-08-20T08:38:56.043Z,23.76
2017-08-20T08:39:56.021Z,23.68
2017-08-20T08:40:56.000Z,23.69
2017-08-20T08:41:56.008Z,23.72
2017-08-20T08:42:55.958Z,23.72
2017-08-20T08:43:55.938Z,23.63
2017-08-20T08:44:55.916Z,23.68
2017-08-20T08:45:55.900Z,23.75
2017-08-20T08:46:55.875Z,23.68
2017-08-20T08:47:55.853Z,23.72
2017-08-20T08:48:55.833Z,23.68
2017-08-20T08:49:55.814Z,23.66
2017-08-20T08:50:55.791Z,23.72
2017-08-20T08:51:55.770Z,23.63
2017-08-20T08:52:55.750Z,23.68
2017-08-20T08:53:55.729Z,23.61
2017-08-20T08:54:55.711Z,23.69
2017-08-20T08:55:55.687Z,23.73
2017-08-20T08:56:55.666Z,23.70
2017-08-20T08:57:55.644Z,23.63
2017-08-20T08:58:55.624Z,23.63
2017-08-20T08:59:55.604Z,23.61
2017-08-20T09:00:55.583Z,23.65
2017-08-20T09:01:55.561Z,23.70
2017-08-20T09:02:55.542Z,23.78
2017-08-20T09:03:55.520Z,23.65
2017-08-20T09:04:55.500Z,23.68
2017-08-20T09:05:55.479Z,23.57
2017-08-20T09:06:55.459Z,23.69
2017-08-20T09:07:55.439Z,23.68
2017-08-20T09:08:55.416Z,23.69
2017-08-20T09:09:55.399Z,23.73
2017-08-20T09:10:55.375Z,23.73
2017-08-20T09:11:55.359Z,23.72
2017-08-20T09:12:55.337Z,23.69
2017-08-20T09:13:55.314Z,23.68
2017-08-20T09:14:55.293Z,23.68
2017-08-20T09:15:55.272Z,23.70
2017-08-20T09:16:55.250Z,23.69
2017-08-20T09:17:55.231Z,23.70
2017-08-20T09:18:55.208Z,23.72
2017-08-20T09:19:55.187Z,23.69
2017-08-20T09:20:55.173Z,23.65
2017-08-20T09:21:55.146Z,23.69
2017-08-20T09:22:55.131Z,23.72
2017-08-20T09:23:55.107Z,23.68
2017-08-20T09:24:55.086Z,23.72
2017-08-20T09:25:55.063Z,23.70
2017-08-20T09:26:55.043Z,23.73
2017-08-20T09:27:55.021Z,23.70
2017-08-20T09:28:55.003Z,23.72
2017-08-20T09:29:54.980Z,23.75
2017-08-20T09:30:54.962Z,23.66
2017-08-20T09:31:54.939Z,23.75
2017-08-20T09:32:54.920Z,23.69
2017-08-20T09:33:54.898Z,23.68
2017-08-20T09:34:54.877Z,23.75
2017-08-20T09:35:54.857Z,23.78
2017-08-20T09:36:54.834Z,23.73
2017-08-20T09:37:54.813Z,23.69
2017-08-20T09:38:54.793Z,23.72
2017-08-20T09:39:54.773Z,23.75
2017-08-20T09:40:54.754Z,23.75
2017-08-20T09:41:54.733Z,23.75
2017-08-20T09:42:54.710Z,23.69
2017-08-20T09:43:54.689Z,23.75
2017-08-20T09:44:54.670Z,23.75
2017-08-20T09:45:54.649Z,23.76
2017-08-20T09:46:54.628Z,23.73
2017-08-20T09:47:54.606Z,23.66
2017-08-20T09:48:54.585Z,23.66
2017-08-20T09:49:54.565Z,23.73
2017-08-20T09:50:54.545Z,23.63
2017-08-20T09:51:54.524Z,23.69
2017-08-20T09:52:54.502Z,23.68
2017-08-20T09:53:54.483Z,23.70
2017-08-20T09:54:54.462Z,23.75
2017-08-20T09:55:54.440Z,23.73
2017-08-20T09:56:54.420Z,23.70
2017-08-20T09:57:54.400Z,23.75
2017-08-20T09:58:54.379Z,23.68
2017-08-20T09:59:54.358Z,23.72
2017-08-20T10:00:54.336Z,23.72
2017-08-20T10:01:54.317Z,23.73
2017-08-20T10:02:54.297Z,23.73
2017-08-20T10:03:54.274Z,23.68
2017-08-20T10:04:54.254Z,23.72
2017-08-20T10:05:54.233Z,23.75
2017-08-20T10:06:54.212Z,23.65
2017-08-20T10:07:54.191Z,23.72
2017-08-20T10:08:54.171Z,23.75
2017-08-20T10:09:54.148Z,23.75
2017-08-20T10:10:54.130Z,23.72
2017-08-20T10:11:54.108Z,23.69
2017-08-20T10:12:54.087Z,23.69
2017-08-20T10:13:54.072Z,23.69
2017-08-20T10:14:54.048Z,23.70
2017-08-20T10:15:54.030Z,23.70
2017-08-20T10:16:54.005Z,23.72
2017-08-20T10:17:53.983Z,23.66
2017-08-20T10:18:53.965Z,23.73
2017-08-20T10:19:53.944Z,23.72
2017-08-20T10:20:53.923Z,23.72
2017-08-20T10:21:53.906Z,23.72
2017-08-20T10:22:53.882Z,23.73
2017-08-20T10:23:53.858Z,23.75
2017-08-20T10:24:53.843Z,23.73
2017-08-20T10:25:53.822Z,23.72
2017-08-20T10:26:53.798Z,23.68
2017-08-20T10:27:53.775Z,23.75
2017-08-20T10:28:53.759Z,23.61
2017-08-20T10:29:53.736Z,23.73
2017-08-20T10:30:53.719Z,23.73
2017-08-20T10:31:53.692Z,23.73
2017-08-20T10:32:53.674Z,23.68
2017-08-20T10:33:53.655Z,23.70
2017-08-20T10:34:53.631Z,23.63
2017-08-20T10:35:53.612Z,23.68
2017-08-20T10:36:53.588Z,23.69
2017-08-20T10:37:53.570Z,23.65
2017-08-20T10:38:53.548Z,23.73
2017-08-20T10:39:53.529Z,23.65
2017-08-20T10:40:53.511Z,23.68
2017-08-20T10:41:53.488Z,23.58
2017-08-20T10:42:53.470Z,23.68
2017-08-20T10:43:53.447Z,23.73
2017-08-20T10:44:53.428Z,23.73
2017-08-20T10:45:53.404Z,23.68
2017-08-20T10:46:53.390Z,23.73
2017-08-20T10:47:53.379Z,23.73
2017-08-20T10:48:53.345Z,23.66
2017-08-20T10:49:53.319Z,23.72
2017-08-20T10:50:53.304Z,23.73
2017-08-20T10:51:53.279Z,23.69
2017-08-20T10:52:53.266Z,23.58
2017-08-20T10:53:53.238Z,23.70
2017-08-20T10:54:53.224Z,23.68
2017-08-20T10:55:53.195Z,23.72
2017-08-20T10:56:53.180Z,23.66
2017-08-20T10:57:53.155Z,23.73
2017-08-20T10:58:53.134Z,23.70
2017-08-20T10:59:53.113Z,23.70
2017-08-20T11:00:53.098Z,23.75
2017-08-20T11:01:53.079Z,23.73
2017-08-20T11:02:53.057Z,23.72
2017-08-20T11:03:53.030Z,23.65
2017-08-20T11:04:53.015Z,23.61
2017-08-20T11:05:52.992Z,23.65
2017-08-20T11:06:52.971Z,23.68
2017-08-20T11:07:52.950Z,23.68
2017-08-20T11:08:52.927Z,23.63
2017-08-20T11:09:52.909Z,23.70
2017-08-20T11:10:52.887Z,23.68
2017-08-20T11:11:52.869Z,23.72
2017-08-20T11:12:52.849Z,23.61
2017-08-20T11:13:52.825Z,23.75
2017-08-20T11:14:52.814Z,23.70
2017-08-20T11:15:52.783Z,23.68
2017-08-20T11:16:52.766Z,23.73
2017-08-20T11:17:52.744Z,23.68
2017-08-20T11:18:52.726Z,23.69
2017-08-20T11:19:52.699Z,23.65
2017-08-20T11:20:52.683Z,23.68
2017-08-20T11:21:52.661Z,23.69
2017-08-20T11:22:52.639Z,23.70
2017-08-20T11:23:52.619Z,23.73
2017-08-20T11:24:52.599Z,23.72
2017-08-20T11:25:52.581Z,23.72
2017-08-20T11:26:52.558Z,23.72
2017-08-20T11:27:52.538Z,23.68
2017-08-20T11:28:52.518Z,23.75
2017-08-20T11:29:52.496Z,23.61
2017-08-20T11:30:52.472Z,23.80
2017-08-20T11:31:52.456Z,23.75
2017-08-20T11:32:52.435Z,23.75
2017-08-20T11:33:52.410Z,23.75
2017-08-20T11:34:52.394Z,23.68
2017-08-20T11:35:52.373Z,23.73
2017-08-20T11:36:52.355Z,23.68
2017-08-20T11:37:52.333Z,23.70
2017-08-20T11:38:52.312Z,23.68
2017-08-20T11:39:52.287Z,23.75
2017-08-20T11:40:52.266Z,23.72
2017-08-20T11:41:52.250Z,23.78
2017-08-20T11:42:52.226Z,23.70
2017-08-20T11:43:52.206Z,23.78
2017-08-20T11:44:52.182Z,23.70
2017-08-20T11:45:52.163Z,23.70
2017-08-20T11:46:52.147Z,23.75
2017-08-20T11:47:52.130Z,23.68
2017-08-20T11:48:52.101Z,23.69
2017-08-20T11:49:52.085Z,23.78
2017-08-20T11:50:52.064Z,23.75
2017-08-20T11:51:52.043Z,23.73
2017-08-20T11:52:52.022Z,23.72
2017-08-20T11:53:52.001Z,23.70
2017-08-20T11:54:51.981Z,23.79
2017-08-20T11:55:51.958Z,23.72
2017-08-20T11:56:51.939Z,23.79
2017-08-20T11:57:51.919Z,23.72
2017-08-20T11:58:51.902Z,23.68
2017-08-20T11:59:51.879Z,23.73
2017-08-20T12:00:51.859Z,23.70
2017-08-20T12:01:51.833Z,23.70
2017-08-20T12:02:51.814Z,23.70
2017-08-20T12:03:51.795Z,23.80
2017-08-20T12:04:51.777Z,23.69
2017-08-20T12:05:51.755Z,23.78
2017-08-20T12:06:51.734Z,23.80
2017-08-20T12:07:51.709Z,23.75
2017-08-20T12:08:51.693Z,23.76
2017-08-20T12:09:51.669Z,23.75
2017-08-20T12:10:51.668Z,23.80
2017-08-20T12:11:51.633Z,23.80
2017-08-20T12:12:51.611Z,23.79
2017-08-20T12:13:51.592Z,23.76
2017-08-20T12:14:51.571Z,23.68
2017-08-20T12:15:51.546Z,23.76
2017-08-20T12:16:51.532Z,23.66
2017-08-20T12:17:51.507Z,23.75
2017-08-20T12:18:51.490Z,23.80
2017-08-20T12:19:51.470Z,23.76
2017-08-20T12:20:51.449Z,23.76
2017-08-20T12:21:51.427Z,23.78
2017-08-20T12:22:51.408Z,23.61
2017-08-20T12:23:51.385Z,23.68
2017-08-20T12:24:51.364Z,23.75
2017-08-20T12:25:51.346Z,23.65
2017-08-20T12:26:51.324Z,23.78
2017-08-20T12:27:51.305Z,23.78
2017-08-20T12:28:51.280Z,23.73
2017-08-20T12:29:51.260Z,23.73
2017-08-20T12:30:51.242Z,23.78
2017-08-20T12:31:51.219Z,23.72
2017-08-20T12:32:51.198Z,23.75
2017-08-20T12:33:51.180Z,23.79
2017-08-20T12:34:51.157Z,23.69
2017-08-20T12:35:51.139Z,23.76
2017-08-20T12:36:51.119Z,23.79
2017-08-20T12:37:51.101Z,23.79
2017-08-20T12:38:51.081Z,23.76
2017-08-20T12:39:51.055Z,23.78
2017-08-20T12:40:51.037Z,23.75
2017-08-20T12:41:51.019Z,23.69
2017-08-20T12:42:50.996Z,23.68
2017-08-20T12:43:50.977Z,23.78
2017-08-20T12:44:50.957Z,23.73
2017-08-20T12:45:50.937Z,23.79
2017-08-20T12:46:50.912Z,23.79
2017-08-20T12:47:50.895Z,23.76
2017-08-20T12:48:50.871Z,23.75
2017-08-20T12:49:50.852Z,23.75
2017-08-20T12:50:50.835Z,23.73
2017-08-20T12:51:50.815Z,23.76